Time;durP1;ratioP1;P1;durP2;ratioP2;P2;SDS_P1;SDS_P2;PMS_P1;PMS_P2;Temp;Humidity;BMP_temperature;BMP_pressure;BME280_temperature;BME280_humidity;BME280_pressure;Samples;Min_cycle;Max_cycle;Signal;HPM_P1;HPM_P2
2022/12/20 00:01:35;;;;;;;10.50;6.90;;;;;;;0.13;66.52;97519.13;105551;1287;25386;-84
2022/12/20 00:04:05;;;;;;;15.60;6.90;;;;;;;0.12;66.85;97516.67;105478;1304;29376;-83
2022/12/20 00:06:35;;;;;;;9.50;5.90;;;;;;;0.09;67.06;97522.11;105500;1297;25468;-83
2022/12/20 00:09:06;;;;;;;12.80;6.40;;;;;;;0.10;67.21;97524.40;104521;1302;1388774;-83
2022/12/20 00:11:37;;;;;;;12.50;7.30;;;;;;;0.10;67.07;97534.30;105483;1302;24047;-82
2022/12/20 00:14:09;;;;;;;12.60;6.30;;;;;;;0.08;67.25;97542.56;105513;1295;22468;-83
2022/12/20 00:16:40;;;;;;;13.00;6.90;;;;;;;0.06;67.46;97523.73;105482;1285;24296;-83
2022/12/20 00:19:12;;;;;;;12.20;6.80;;;;;;;0.05;67.71;97541.58;105482;1288;22522;-83
2022/12/20 00:21:43;;;;;;;11.40;6.20;;;;;;;0.08;67.54;97553.14;105469;1305;22500;-83
2022/12/20 00:24:11;;;;;;;12.40;6.70;;;;;;;0.15;67.14;97522.73;105531;1290;24354;-82
2022/12/20 00:26:40;;;;;;;10.80;7.10;;;;;;;0.17;67.53;97526.96;105529;1302;22795;-84
2022/12/20 00:29:08;;;;;;;11.10;6.00;;;;;;;0.15;67.82;97516.67;105505;1302;23311;-84
2022/12/20 00:31:36;;;;;;;9.90;5.40;;;;;;;0.12;68.22;97512.49;105530;1287;22495;-82
2022/12/20 00:34:05;;;;;;;11.10;7.00;;;;;;;0.11;67.99;97527.33;105478;1302;22626;-83
2022/12/20 00:36:36;;;;;;;11.10;5.90;;;;;;;0.15;68.08;97506.40;105552;1302;22469;-83
2022/12/20 00:39:05;;;;;;;8.50;5.30;;;;;;;0.15;68.46;97523.09;105463;1302;22490;-83
2022/12/20 00:41:35;;;;;;;12.00;5.60;;;;;;;0.13;68.73;97515.96;105477;1281;23665;-83
2022/12/20 00:44:06;;;;;;;12.30;6.50;;;;;;;0.12;68.96;97512.17;105443;1302;25217;-83
2022/12/20 00:46:35;;;;;;;9.40;5.10;;;;;;;0.10;69.36;97518.02;105512;1302;22470;-82
2022/12/20 00:49:03;;;;;;;14.50;6.70;;;;;;;0.10;69.17;97517.75;105526;1302;25370;-82
2022/12/20 00:51:32;;;;;;;13.40;6.50;;;;;;;0.15;69.19;97522.70;105524;1302;22541;-82
2022/12/20 00:54:00;;;;;;;13.00;6.70;;;;;;;0.17;69.21;97517.61;105477;1302;22507;-82
2022/12/20 00:56:30;;;;;;;12.60;5.90;;;;;;;0.18;68.88;97506.50;105534;1281;24697;-83
2022/12/20 00:59:00;;;;;;;10.70;6.30;;;;;;;0.22;68.39;97519.44;105555;1302;24283;-83
2022/12/20 01:01:31;;;;;;;12.50;7.10;;;;;;;0.28;68.34;97529.60;105541;1282;23729;-83
2022/12/20 01:04:02;;;;;;;10.10;4.90;;;;;;;0.29;68.39;97502.17;105431;1298;27805;-82
2022/12/20 01:06:31;;;;;;;11.70;6.40;;;;;;;0.32;68.34;97504.95;105493;1302;22960;-83
2022/12/20 01:09:00;;;;;;;15.90;7.10;;;;;;;0.36;68.15;97514.91;105520;1296;22527;-84
2022/12/20 01:11:33;;;;;;;11.70;6.30;;;;;;;0.36;67.84;97515.88;105551;1298;22471;-82
2022/12/20 01:14:04;;;;;;;11.40;5.90;;;;;;;0.35;67.61;97513.06;105464;1303;23460;-84
2022/12/20 01:16:36;;;;;;;11.00;5.70;;;;;;;0.39;67.69;97488.13;105497;1292;25402;-82
2022/12/20 01:19:06;;;;;;;9.70;5.20;;;;;;;0.40;67.57;97498.92;105518;1298;22464;-82
2022/12/20 01:21:34;;;;;;;8.80;5.20;;;;;;;0.44;67.14;97504.02;105518;1303;21704;-85
2022/12/20 01:24:04;;;;;;;10.20;5.00;;;;;;;0.51;67.13;97504.86;105449;1290;22868;-83
2022/12/20 01:26:32;;;;;;;9.60;4.70;;;;;;;0.56;66.89;97505.09;105615;1286;24110;-82
2022/12/20 01:29:01;;;;;;;9.60;4.90;;;;;;;0.58;66.75;97512.10;105666;1302;22470;-83
2022/12/20 01:31:30;;;;;;;10.40;5.70;;;;;;;0.70;66.20;97497.38;105683;1280;25207;-82
2022/12/20 01:33:59;;;;;;;10.80;5.40;;;;;;;0.75;65.70;97506.63;105640;1278;31187;-82
2022/12/20 01:36:29;;;;;;;9.40;4.90;;;;;;;0.82;65.46;97517.91;105756;1304;22464;-83
2022/12/20 01:38:57;;;;;;;;;;;;;;;0.86;64.92;97499.66;105786;1304;24247;-83
2022/12/20 01:41:28;;;;;;;13.10;6.20;;;;;;;0.90;64.76;97501.27;105767;1295;25473;-83
2022/12/20 01:43:59;;;;;;;10.80;5.90;;;;;;;0.88;64.93;97508.50;105739;1288;22537;-82
2022/12/20 01:46:29;;;;;;;10.10;5.20;;;;;;;0.83;65.40;97503.20;105733;1282;24284;-83
2022/12/20 01:49:02;;;;;;;9.70;5.40;;;;;;;0.80;65.10;97500.86;105756;1301;22521;-82
2022/12/20 01:51:34;;;;;;;8.60;4.50;;;;;;;0.82;65.36;97499.19;105815;1278;22475;-82
2022/12/20 01:54:07;;;;;;;9.30;4.90;;;;;;;0.79;65.49;97479.05;105787;1297;25291;-82
2022/12/20 01:56:37;;;;;;;11.70;6.60;;;;;;;0.77;65.77;97497.92;105801;1288;26146;-82
2022/12/20 01:59:06;;;;;;;9.60;5.70;;;;;;;0.74;66.10;97510.23;105773;1302;22479;-82
2022/12/20 02:01:35;;;;;;;10.30;5.30;;;;;;;0.73;65.92;97496.88;105828;1295;22465;-82
2022/12/20 02:04:03;;;;;;;9.40;4.80;;;;;;;0.82;65.66;97499.30;105477;1303;25219;-83
2022/12/20 02:06:31;;;;;;;8.50;5.10;;;;;;;0.92;64.93;97494.42;105749;1285;28304;-84
2022/12/20 02:09:03;;;;;;;8.20;4.60;;;;;;;1.02;64.77;97473.02;105787;1302;22550;-82
2022/12/20 02:22:40;;;;;;;9.90;5.80;;;;;;;0.94;66.23;97490.89;102627;1325;558117;-83
2022/12/20 02:25:48;;;;;;;11.30;5.90;;;;;;;0.84;66.39;97501.81;103716;1310;1345345;-83
2022/12/20 02:28:40;;;;;;;12.10;5.80;;;;;;;0.82;67.06;97494.68;105113;1299;22509;-83
2022/12/20 02:31:13;;;;;;;8.40;5.20;;;;;;;0.79;66.99;97505.09;105124;1294;22479;-83
2022/12/20 02:33:48;;;;;;;10.80;5.70;;;;;;;0.81;67.19;97493.08;105189;1294;22518;-83
2022/12/20 02:36:19;;;;;;;9.20;5.20;;;;;;;0.77;67.97;97471.99;105106;1308;22492;-83
2022/12/20 02:38:51;;;;;;;10.80;5.30;;;;;;;0.71;68.48;97466.30;105128;1307;24376;-82
2022/12/20 02:41:30;;;;;;;9.00;5.10;;;;;;;0.67;69.10;97471.63;105176;1300;22538;-82
2022/12/20 02:46:56;;;;;;;9.20;5.00;;;;;;;0.61;70.01;97459.60;105068;1303;23128;-83
2022/12/20 02:49:31;;;;;;;10.50;5.30;;;;;;;0.62;70.55;97458.64;105092;1309;25617;-83
2022/12/20 02:52:05;;;;;;;11.70;6.40;;;;;;;0.60;71.07;97470.35;105121;1308;25303;-83
2022/12/20 02:54:37;;;;;;;11.00;6.10;;;;;;;0.56;71.60;97455.27;105113;1307;47403;-83
2022/12/20 02:57:17;;;;;;;10.80;5.90;;;;;;;0.52;72.14;97445.17;105254;1306;22481;-84
2022/12/20 02:59:57;;;;;;;11.20;5.40;;;;;;;0.51;72.36;97438.03;105103;1308;24440;-84
2022/12/20 03:03:21;;;;;;;9.70;5.40;;;;;;;0.51;72.33;97445.69;105092;1307;22482;-83
2022/12/20 03:05:25;;;;;;;12.80;6.40;;;;;;;0.52;72.19;97434.73;105071;1308;28203;-83
2022/12/20 03:07:57;;;;;;;8.10;5.00;;;;;;;0.51;72.66;97433.66;105090;1308;22489;-83
2022/12/20 03:10:28;;;;;;;8.60;4.50;;;;;;;0.52;72.24;97430.61;105487;1302;22604;-83
2022/12/20 03:13:02;;;;;;;9.50;5.30;;;;;;;0.53;72.24;97427.80;105424;1303;35276;-82
2022/12/20 03:15:40;;;;;;;7.70;4.00;;;;;;;0.55;71.90;97423.92;105461;1288;22466;-83
2022/12/20 03:18:12;;;;;;;9.20;4.60;;;;;;;0.58;71.81;97435.71;105467;1304;25263;-83
2022/12/20 03:20:43;;;;;;;8.50;4.70;;;;;;;0.59;71.66;97437.69;105477;1280;24224;-83
2022/12/20 03:23:14;;;;;;;10.50;5.40;;;;;;;0.58;71.88;97423.91;105515;1302;23698;-84
2022/12/20 03:25:47;;;;;;;9.70;5.50;;;;;;;0.56;72.04;97430.23;105448;1305;23140;-83
2022/12/20 03:28:19;;;;;;;8.50;5.00;;;;;;;0.56;71.93;97421.41;105422;1305;22508;-83
2022/12/20 03:30:50;;;;;;;9.20;5.20;;;;;;;0.57;72.04;97428.96;105448;1305;22490;-83
2022/12/20 03:33:21;;;;;;;8.10;4.70;;;;;;;0.58;71.99;97428.28;105320;1287;43826;-83
2022/12/20 03:35:52;;;;;;;9.20;5.20;;;;;;;0.61;71.88;97432.15;105462;1302;22504;-84
2022/12/20 03:38:23;;;;;;;8.70;5.30;;;;;;;0.62;71.83;97436.16;105414;1304;22566;-84
2022/12/20 03:40:56;;;;;;;9.70;4.90;;;;;;;0.65;71.55;97432.67;105461;1305;22472;-84
2022/12/20 03:43:30;;;;;;;9.50;5.10;;;;;;;0.65;71.61;97439.90;105384;1302;25340;-83
2022/12/20 03:46:01;;;;;;;8.90;5.20;;;;;;;0.65;71.81;97437.81;105463;1297;22496;-83
2022/12/20 03:48:32;;;;;;;9.30;4.80;;;;;;;0.64;71.70;97432.23;105478;1280;22502;-84
2022/12/20 03:51:05;;;;;;;6.70;4.00;;;;;;;0.63;71.79;97433.55;105413;1305;22477;-84
2022/12/20 03:53:36;;;;;;;11.10;5.70;;;;;;;0.62;71.95;97434.92;105348;1296;44513;-84
2022/12/20 03:56:08;;;;;;;9.80;5.00;;;;;;;0.59;72.12;97434.31;105450;1289;22481;-83
2022/12/20 03:58:39;;;;;;;10.00;5.00;;;;;;;0.56;71.95;97424.56;105481;1304;22624;-83
2022/12/20 04:01:22;;;;;;;9.90;5.40;;;;;;;0.55;72.24;97418.38;105441;1305;24240;-83
2022/12/20 04:03:53;;;;;;;9.40;5.10;;;;;;;0.54;72.04;97429.94;105450;1303;26467;-83
2022/12/20 04:06:25;;;;;;;8.40;4.90;;;;;;;0.58;71.74;97417.80;105449;1297;22478;-83
2022/12/20 04:08:56;;;;;;;9.10;5.00;;;;;;;0.61;71.28;97421.98;105474;1303;22511;-83
2022/12/20 04:11:27;;;;;;;9.10;5.50;;;;;;;0.61;71.36;97424.43;105522;1302;24341;-83
2022/12/20 04:14:01;;;;;;;9.60;5.50;;;;;;;0.58;71.64;97422.73;105501;1302;24257;-84
2022/12/20 04:16:33;;;;;;;10.40;5.10;;;;;;;0.55;71.75;97417.02;105436;1305;22492;-83
2022/12/20 04:19:04;;;;;;;8.60;5.40;;;;;;;0.56;71.40;97405.77;105481;1304;23313;-83
2022/12/20 04:21:36;;;;;;;10.80;4.90;;;;;;;0.57;71.40;97411.02;105423;1305;22485;-83
2022/12/20 04:24:10;;;;;;;10.60;5.30;;;;;;;0.59;70.70;97404.73;105458;1300;23833;-84
2022/12/20 04:26:41;;;;;;;9.70;5.30;;;;;;;0.63;70.27;97401.45;105509;1296;22445;-84
2022/12/20 04:29:12;;;;;;;10.10;6.00;;;;;;;0.65;70.30;97399.95;105577;1281;23069;-83
2022/12/20 04:31:43;;;;;;;10.70;6.30;;;;;;;0.64;69.86;97389.80;105480;1287;22511;-83
2022/12/20 04:34:14;;;;;;;8.00;4.60;;;;;;;0.64;69.68;97387.83;105332;1288;62007;-84
2022/12/20 04:36:45;;;;;;;9.50;4.90;;;;;;;0.67;68.80;97393.45;105428;1303;22480;-83
2022/12/20 04:39:19;;;;;;;8.80;4.50;;;;;;;0.73;68.63;97376.35;105424;1298;22548;-83
2022/12/20 04:41:50;;;;;;;7.50;4.40;;;;;;;0.76;68.12;97378.72;105434;1296;22469;-83
2022/12/20 04:44:22;;;;;;;8.90;5.20;;;;;;;0.79;67.75;97380.52;105384;1294;31684;-83
2022/12/20 04:46:53;;;;;;;7.70;4.40;;;;;;;0.87;67.10;97382.37;105458;1304;22479;-83
2022/12/20 04:49:25;;;;;;;9.90;5.30;;;;;;;0.91;67.05;97375.21;105533;1302;22454;-83
2022/12/20 04:53:46;;;;;;;9.10;4.40;;;;;;;0.90;66.51;97391.80;105465;1297;22622;-84
2022/12/20 04:54:49;;;;;;;9.70;4.40;;;;;;;0.94;66.66;97370.92;105533;1294;23406;-83
2022/12/20 04:57:21;;;;;;;9.10;5.10;;;;;;;0.95;66.52;97370.68;105602;1302;22511;-83
2022/12/20 04:59:52;;;;;;;6.60;3.90;;;;;;;0.94;66.27;97392.89;105495;1302;22588;-83
2022/12/20 05:02:23;;;;;;;9.80;4.40;;;;;;;0.96;66.13;97375.41;105454;1302;25428;-83
2022/12/20 05:04:54;;;;;;;7.80;4.30;;;;;;;0.95;65.95;97377.47;105506;1302;30164;-83
2022/12/20 05:07:25;;;;;;;8.90;5.20;;;;;;;0.95;65.96;97375.42;105517;1294;23233;-83
2022/12/20 05:09:57;;;;;;;8.40;4.80;;;;;;;0.92;65.79;97386.50;105552;1302;22470;-84
2022/12/20 05:12:28;;;;;;;12.50;6.00;;;;;;;0.92;65.73;97378.67;105494;1302;22482;-83
2022/12/20 05:15:00;;;;;;;8.50;4.20;;;;;;;0.92;65.72;97372.09;105509;1287;22464;-83
2022/12/20 05:17:33;;;;;;;8.70;5.50;;;;;;;0.89;65.70;97367.23;105484;1302;22808;-84
2022/12/20 05:20:05;;;;;;;9.50;4.80;;;;;;;0.86;65.63;97366.34;105567;1293;22466;-83
2022/12/20 05:28:16;;;;;;;11.00;6.40;;;;;;;0.79;66.17;97359.45;105533;1302;22462;-84
2022/12/20 05:30:47;;;;;;;7.60;4.30;;;;;;;0.79;66.05;97358.77;105631;1297;26426;-84
2022/12/20 05:33:18;;;;;;;8.30;4.90;;;;;;;0.79;66.16;97364.31;105469;1278;22583;-82
2022/12/20 05:35:51;;;;;;;8.20;5.50;;;;;;;0.78;66.43;97367.76;105549;1302;22458;-83
2022/12/20 05:38:22;;;;;;;7.90;4.30;;;;;;;0.75;66.72;97366.83;105467;1296;22447;-82
2022/12/20 05:40:54;;;;;;;9.10;4.30;;;;;;;0.70;66.91;97365.05;105558;1302;24330;-82
2022/12/20 05:43:25;;;;;;;9.40;4.80;;;;;;;0.67;67.11;97362.34;105417;1303;23978;-82
2022/12/20 05:45:56;;;;;;;8.80;5.10;;;;;;;0.67;66.86;97362.63;105584;1302;22458;-82
2022/12/20 05:48:27;;;;;;;8.60;5.30;;;;;;;0.67;67.24;97363.95;105567;1291;23279;-82
2022/12/20 05:50:58;;;;;;;9.20;5.40;;;;;;;0.68;67.08;97367.85;105468;1304;22505;-82
2022/12/20 05:53:30;;;;;;;9.00;5.10;;;;;;;0.66;67.18;97376.95;105413;1286;30950;-82
2022/12/20 05:56:02;;;;;;;10.20;5.50;;;;;;;0.67;66.96;97370.94;105634;1302;22532;-82
2022/12/20 05:58:34;;;;;;;8.30;4.40;;;;;;;0.70;67.05;97380.70;105505;1288;22472;-82
2022/12/20 06:01:07;;;;;;;9.30;5.10;;;;;;;0.69;67.37;97377.88;105459;1303;22942;-82
2022/12/20 06:03:39;;;;;;;9.40;4.90;;;;;;;0.66;67.56;97390.04;105370;1297;24321;-83
2022/12/20 06:06:11;;;;;;;9.60;5.10;;;;;;;0.65;67.74;97366.40;105436;1304;24292;-82
2022/12/20 06:08:42;;;;;;;10.00;6.20;;;;;;;0.64;67.80;97378.20;105444;1304;22490;-82
2022/12/20 06:11:14;;;;;;;9.60;5.60;;;;;;;0.64;67.81;97384.23;105429;1277;22472;-82
2022/12/20 06:13:45;;;;;;;10.80;6.20;;;;;;;0.67;67.75;97365.23;105438;1295;27470;-82
2022/12/20 06:16:19;;;;;;;10.50;5.10;;;;;;;0.67;67.61;97378.08;105509;1291;23288;-83
2022/12/20 06:18:51;;;;;;;9.80;5.60;;;;;;;0.66;67.64;97374.98;105504;1298;22530;-83
2022/12/20 06:21:22;;;;;;;10.50;5.50;;;;;;;0.63;67.70;97375.39;105498;1303;22466;-81
2022/12/20 06:23:53;;;;;;;9.70;4.70;;;;;;;0.61;67.51;97376.79;105432;1294;23599;-83
2022/12/20 06:26:25;;;;;;;10.40;5.60;;;;;;;0.61;67.79;97387.78;105453;1303;22516;-83
2022/12/20 06:29:01;;;;;;;10.50;6.50;;;;;;;0.60;67.99;97373.06;105493;1299;22492;-82
2022/12/20 06:31:32;;;;;;;10.50;5.30;;;;;;;0.55;67.84;97378.73;105455;1304;22599;-83
2022/12/20 06:34:03;;;;;;;9.90;5.50;;;;;;;0.56;67.68;97397.25;105478;1297;24092;-82
2022/12/20 06:36:36;;;;;;;10.30;6.00;;;;;;;0.57;67.73;97383.65;105467;1290;22453;-82
2022/12/20 06:39:09;;;;;;;9.80;5.00;;;;;;;0.57;67.79;97384.25;105546;1303;22481;-82
2022/12/20 06:41:41;;;;;;;10.80;5.90;;;;;;;0.58;67.70;97377.34;105613;1302;22468;-82
2022/12/20 06:44:13;;;;;;;9.60;5.20;;;;;;;0.61;67.51;97387.42;105410;1305;22469;-83
2022/12/20 06:46:44;;;;;;;12.00;6.50;;;;;;;0.64;67.26;97378.84;105496;1286;25206;-82
2022/12/20 06:49:18;;;;;;;11.30;5.40;;;;;;;0.68;67.23;97375.23;105518;1302;22469;-82
2022/12/20 06:51:50;;;;;;;7.30;4.40;;;;;;;0.72;66.78;97374.46;105578;1293;24366;-82
2022/12/20 06:54:22;;;;;;;8.50;4.80;;;;;;;0.81;66.47;97375.63;105453;1302;22479;-82
2022/12/20 06:56:53;;;;;;;7.90;4.80;;;;;;;0.85;66.65;97374.52;105505;1287;24267;-82
2022/12/20 06:59:24;;;;;;;11.70;4.80;;;;;;;0.88;66.52;97376.30;105460;1298;22468;-82
2022/12/20 07:01:55;;;;;;;8.50;5.20;;;;;;;0.93;66.09;97375.30;105462;1284;22461;-82
2022/12/20 07:04:28;;;;;;;8.50;5.20;;;;;;;0.99;65.77;97378.12;105456;1296;23684;-82
2022/12/20 07:06:59;;;;;;;9.10;5.10;;;;;;;1.06;65.78;97378.58;105407;1295;22455;-82
2022/12/20 07:09:31;;;;;;;9.10;5.40;;;;;;;1.11;65.89;97394.52;105480;1305;22958;-82
2022/12/20 07:12:02;;;;;;;10.40;5.10;;;;;;;1.12;66.02;97378.13;105423;1296;22493;-82
2022/12/20 07:14:39;;;;;;;10.50;5.30;;;;;;;1.13;66.04;97389.88;105587;1300;37500;-81
2022/12/20 07:17:16;;;;;;;6.80;4.40;;;;;;;1.18;65.88;97385.34;105552;1290;21688;-82
2022/12/20 07:19:48;;;;;;;11.00;5.80;;;;;;;1.21;65.99;97381.24;105494;1290;22484;-82
2022/12/20 07:22:19;;;;;;;10.00;6.00;;;;;;;1.25;65.39;97385.25;105466;1300;22509;-82
2022/12/20 07:24:53;;;;;;;9.60;5.80;;;;;;;1.29;65.32;97376.89;105336;1303;28044;-83
2022/12/20 07:27:25;;;;;;;10.80;5.60;;;;;;;1.27;65.23;97384.39;105445;1305;25341;-81
2022/12/20 07:29:56;;;;;;;9.40;5.20;;;;;;;1.27;65.65;97379.77;105454;1305;22479;-81
2022/12/20 07:32:28;;;;;;;9.50;5.80;;;;;;;1.19;65.77;97376.35;105408;1297;22507;-82
2022/12/20 07:35:00;;;;;;;10.50;5.30;;;;;;;1.17;66.03;97369.00;105552;1284;75815;-81
2022/12/20 07:37:31;;;;;;;9.50;5.50;;;;;;;1.16;65.84;97379.84;105513;1303;22561;-82
2022/12/20 07:40:07;;;;;;;10.30;6.20;;;;;;;1.18;65.75;97370.81;105529;1296;23171;-82
2022/12/20 07:42:39;;;;;;;10.00;5.70;;;;;;;1.21;65.87;97371.69;105510;1291;22483;-82
2022/12/20 07:45:12;;;;;;;10.80;5.40;;;;;;;1.25;65.50;97366.34;105326;1303;25459;-82
2022/12/20 07:47:45;;;;;;;10.50;6.50;;;;;;;1.31;65.49;97370.09;105385;1284;22472;-82
2022/12/20 07:50:16;;;;;;;9.80;5.90;;;;;;;1.43;65.50;97364.54;105463;1297;22535;-82
2022/12/20 07:52:51;;;;;;;8.20;5.40;;;;;;;1.64;65.02;97365.45;105469;1303;22598;-82
2022/12/20 07:55:23;;;;;;;10.00;5.70;;;;;;;1.85;64.56;97367.64;105440;1302;28046;-82
2022/12/20 07:57:57;;;;;;;10.00;5.70;;;;;;;1.98;63.40;97354.73;105565;1280;23468;-81
2022/12/20 08:00:29;;;;;;;12.60;6.60;;;;;;;2.03;63.07;97368.93;105508;1288;22563;-81
2022/12/20 08:03:05;;;;;;;7.20;5.00;;;;;;;2.09;62.67;97360.50;105440;1300;22473;-82
2022/12/20 08:05:43;;;;;;;11.00;6.40;;;;;;;2.13;62.76;97362.75;105411;1298;22473;-82
2022/12/20 08:08:15;;;;;;;10.00;5.70;;;;;;;2.10;62.44;97358.40;105452;1287;22649;-82
2022/12/20 08:10:47;;;;;;;11.90;6.30;;;;;;;2.12;62.44;97372.40;105419;1305;25380;-82
2022/12/20 08:13:19;;;;;;;11.10;6.50;;;;;;;2.14;62.17;97361.59;105438;1304;22234;-82
2022/12/20 08:15:51;;;;;;;9.60;6.40;;;;;;;2.11;62.29;97369.06;105402;1304;22523;-82
2022/12/20 08:18:22;;;;;;;9.00;5.70;;;;;;;2.08;62.46;97369.59;105365;1305;22471;-82
2022/12/20 08:20:53;;;;;;;10.00;5.60;;;;;;;2.02;62.57;97375.33;105391;1304;22480;-82
2022/12/20 08:23:25;;;;;;;11.50;7.30;;;;;;;1.97;62.72;97375.38;105413;1298;29238;-82
2022/12/20 08:25:56;;;;;;;12.20;6.30;;;;;;;1.96;62.59;97365.64;105425;1296;22479;-82
2022/12/20 08:28:27;;;;;;;10.10;6.20;;;;;;;1.99;62.76;97376.11;105576;1302;22614;-82
2022/12/20 08:31:04;;;;;;;11.40;6.70;;;;;;;2.02;62.52;97387.92;105498;1288;22473;-82
2022/12/20 08:33:37;;;;;;;10.20;6.00;;;;;;;2.14;62.27;97372.95;105547;1290;22523;-82
2022/12/20 08:36:11;;;;;;;10.80;6.00;;;;;;;2.23;62.09;97377.55;105447;1293;22469;-82
2022/12/20 08:38:43;;;;;;;10.90;5.80;;;;;;;2.25;61.63;97382.23;105564;1281;25256;-82
2022/12/20 08:41:15;;;;;;;12.50;7.20;;;;;;;2.17;61.15;97382.41;105600;1302;22593;-82
2022/12/20 08:43:46;;;;;;;12.90;7.30;;;;;;;2.11;61.23;97365.56;105399;1305;26301;-82
2022/12/20 08:46:19;;;;;;;11.70;6.30;;;;;;;2.09;61.36;97361.94;105491;1298;22476;-82
2022/12/20 08:48:51;;;;;;;12.00;7.10;;;;;;;2.16;61.27;97359.23;105571;1288;22547;-81
2022/12/20 08:51:25;;;;;;;10.50;5.70;;;;;;;2.21;60.87;97369.52;105565;1300;22505;-82
2022/12/20 08:53:56;;;;;;;10.20;6.20;;;;;;;2.25;61.07;97371.52;105349;1303;45793;-82
2022/12/20 08:56:28;;;;;;;11.20;6.50;;;;;;;2.25;60.97;97368.86;105477;1297;22493;-82
2022/12/20 08:58:59;;;;;;;12.00;7.40;;;;;;;2.28;60.86;97379.45;105537;1301;22488;-83
2022/12/20 09:01:32;;;;;;;11.40;6.50;;;;;;;2.30;61.00;97381.09;105452;1304;25312;-82
2022/12/20 09:04:04;;;;;;;12.30;6.80;;;;;;;2.33;60.91;97371.65;105464;1287;22473;-83
2022/12/20 09:06:37;;;;;;;12.40;6.00;;;;;;;2.34;60.79;97359.77;105465;1281;22473;-83
2022/12/20 09:09:08;;;;;;;9.00;5.00;;;;;;;2.41;60.56;97368.41;105584;1302;22478;-82
2022/12/20 09:11:40;;;;;;;9.30;5.40;;;;;;;2.50;60.73;97352.09;105510;1302;22576;-83
2022/12/20 09:14:11;;;;;;;10.90;6.60;;;;;;;2.54;60.05;97350.64;105535;1303;23143;-82
2022/12/20 09:16:43;;;;;;;13.00;6.10;;;;;;;2.56;60.47;97352.27;105515;1303;22532;-82
2022/12/20 09:19:15;;;;;;;11.60;5.40;;;;;;;2.53;60.34;97360.82;105556;1293;24390;-82
2022/12/20 09:21:46;;;;;;;10.60;6.50;;;;;;;2.49;60.36;97353.63;105468;1303;22503;-82
2022/12/20 09:24:17;;;;;;;10.70;6.00;;;;;;;2.47;60.45;97353.41;105586;1302;24381;-82
2022/12/20 09:26:48;;;;;;;12.80;7.90;;;;;;;2.49;60.32;97340.95;105559;1289;24482;-82
2022/12/20 09:29:22;;;;;;;12.00;7.60;;;;;;;2.50;60.49;97349.36;105427;1305;24289;-82
2022/12/20 09:31:56;;;;;;;13.40;7.90;;;;;;;2.58;60.48;97353.92;105559;1303;22478;-82
2022/12/20 09:34:28;;;;;;;12.30;7.20;;;;;;;2.70;60.03;97346.41;105408;1297;22898;-82
2022/12/20 09:36:59;;;;;;;12.60;7.00;;;;;;;2.74;59.74;97342.60;105586;1302;22519;-83
2022/12/20 09:39:30;;;;;;;10.40;6.30;;;;;;;2.77;59.55;97327.84;105515;1298;25336;-82
2022/12/20 09:42:08;;;;;;;16.40;5.40;;;;;;;2.76;59.42;97330.26;105474;1296;22471;-82
2022/12/20 09:44:42;;;;;;;10.70;6.00;;;;;;;2.72;59.65;97347.53;105435;1305;24101;-82
2022/12/20 09:47:18;;;;;;;18.30;7.90;;;;;;;2.67;59.22;97324.47;105427;1305;22513;-82
2022/12/20 09:49:54;;;;;;;11.90;7.60;;;;;;;2.63;59.33;97341.35;105491;1305;22543;-82
2022/12/20 09:52:36;;;;;;;12.30;7.00;;;;;;;2.63;59.22;97328.84;105447;1305;22549;-82
2022/12/20 09:55:19;;;;;;;11.20;6.70;;;;;;;2.61;59.71;97325.05;105270;1289;58179;-82
2022/12/20 09:58:03;;;;;;;11.20;5.40;;;;;;;2.57;59.64;97327.87;105446;1305;22510;-82
2022/12/20 10:00:41;;;;;;;13.00;7.30;;;;;;;2.56;59.96;97316.41;105425;1281;25374;-82
2022/12/20 10:03:18;;;;;;;10.50;5.90;;;;;;;2.56;59.68;97312.94;105335;1305;73633;-81
2022/12/20 10:05:55;;;;;;;10.70;6.10;;;;;;;2.55;59.47;97309.77;105544;1296;22486;-82
2022/12/20 10:08:50;;;;;;;12.50;6.50;;;;;;;2.52;59.63;97311.70;105573;1302;22467;-82
2022/12/20 10:11:42;;;;;;;13.30;5.60;;;;;;;2.51;60.24;97316.53;105683;1302;22490;-82
2022/12/20 10:14:28;;;;;;;13.90;8.20;;;;;;;2.51;60.21;97313.88;105593;1303;23537;-82
2022/12/20 10:17:02;;;;;;;9.30;5.60;;;;;;;2.53;60.37;97321.52;105504;1302;23106;-82
2022/12/20 10:19:53;;;;;;;12.60;6.10;;;;;;;2.52;60.42;97315.23;105429;1301;22489;-82
2022/12/20 10:22:29;;;;;;;14.60;8.10;;;;;;;2.51;60.50;97320.77;105505;1302;23865;-82
2022/12/20 10:25:12;;;;;;;10.50;5.50;;;;;;;2.51;60.42;97316.21;105439;1297;22611;-81
2022/12/20 10:27:50;;;;;;;9.80;5.50;;;;;;;2.54;60.51;97302.36;105513;1302;22517;-82
2022/12/20 10:30:23;;;;;;;13.10;7.20;;;;;;;2.58;60.20;97301.61;105436;1305;22473;-83
2022/12/20 10:32:58;;;;;;;14.30;7.40;;;;;;;2.66;59.93;97309.20;105484;1303;22473;-81
2022/12/20 10:35:37;;;;;;;16.40;7.50;;;;;;;2.73;59.53;97309.70;105544;1297;22502;-82
2022/12/20 10:38:11;;;;;;;17.00;7.70;;;;;;;2.82;59.40;97296.51;105435;1296;22508;-81
2022/12/20 10:40:45;;;;;;;15.20;9.10;;;;;;;2.90;58.93;97282.39;105478;1302;22491;-82
2022/12/20 10:43:21;;;;;;;13.60;8.10;;;;;;;2.97;58.70;97287.70;105417;1299;22468;-82
2022/12/20 10:46:03;;;;;;;12.60;7.40;;;;;;;3.02;58.50;97271.83;105493;1304;22503;-82
2022/12/20 10:48:37;;;;;;;15.40;9.20;;;;;;;3.01;58.09;97286.23;105565;1302;22518;-82
2022/12/20 10:51:16;;;;;;;13.40;8.40;;;;;;;3.01;58.32;97284.01;105472;1296;25401;-82
2022/12/20 10:53:57;;;;;;;15.00;9.30;;;;;;;2.97;58.37;97273.00;105550;1285;22491;-82
2022/12/20 10:56:32;;;;;;;15.90;9.40;;;;;;;2.88;58.55;97274.02;105591;1303;22566;-82
2022/12/20 10:59:21;;;;;;;14.80;9.00;;;;;;;2.87;58.84;97265.61;105476;1301;25240;-82
2022/12/20 11:01:52;;;;;;;10.50;5.30;;;;;;;2.86;58.81;97269.77;105459;1293;22474;-82
2022/12/20 11:04:29;;;;;;;12.20;8.70;;;;;;;2.83;58.66;97257.48;105428;1289;35661;-81
2022/12/20 11:07:01;;;;;;;13.60;8.40;;;;;;;2.84;58.44;97248.45;105476;1304;22473;-81
2022/12/20 11:09:35;;;;;;;14.70;8.70;;;;;;;2.87;58.36;97232.55;105442;1289;25447;-82
2022/12/20 11:12:13;;;;;;;14.80;8.40;;;;;;;2.88;58.16;97235.88;105441;1305;23197;-82
2022/12/20 11:14:48;;;;;;;12.50;6.80;;;;;;;2.94;58.03;97223.70;105414;1289;25259;-82
2022/12/20 11:17:32;;;;;;;14.80;8.10;;;;;;;3.05;58.02;97224.09;105405;1303;22510;-82
2022/12/20 11:20:29;;;;;;;13.20;7.00;;;;;;;3.12;57.10;97209.86;105440;1305;22466;-81
2022/12/20 11:23:18;;;;;;;10.30;6.00;;;;;;;3.14;57.07;97237.11;105458;1306;25265;-82
2022/12/20 11:26:13;;;;;;;12.30;7.40;;;;;;;3.14;56.60;97229.01;105480;1302;22663;-82
2022/12/20 11:28:59;;;;;;;12.40;7.30;;;;;;;3.11;56.35;97230.27;105361;1302;22482;-83
2022/12/20 11:31:41;;;;;;;12.00;6.60;;;;;;;3.08;56.53;97232.56;105359;1305;22677;-83
2022/12/20 11:34:24;;;;;;;10.50;6.30;;;;;;;3.06;56.12;97230.20;105316;1304;25251;-81
2022/12/20 11:37:11;;;;;;;14.30;8.70;;;;;;;3.09;56.18;97234.81;105286;1290;25330;-81
2022/12/20 11:39:56;;;;;;;13.30;7.10;;;;;;;3.18;56.80;97226.14;105380;1306;24259;-83
2022/12/20 11:42:40;;;;;;;12.90;6.90;;;;;;;3.31;56.06;97223.48;105196;1309;22490;-83
2022/12/20 11:45:21;;;;;;;14.70;7.40;;;;;;;3.49;55.91;97219.75;105440;1306;45260;-83
2022/12/20 11:48:10;;;;;;;10.50;5.90;;;;;;;3.46;55.25;97226.08;105468;1286;22536;-82
2022/12/20 11:50:57;;;;;;;14.50;8.40;;;;;;;3.43;54.64;97229.70;105430;1305;25331;-82
2022/12/20 11:53:39;;;;;;;13.30;7.40;;;;;;;3.45;55.06;97219.64;105366;1306;71608;-82
2022/12/20 11:56:16;;;;;;;13.50;7.40;;;;;;;3.41;55.79;97207.55;105557;1302;22511;-82
2022/12/20 11:58:56;;;;;;;12.20;7.20;;;;;;;3.38;55.92;97200.44;105270;1302;22493;-82
2022/12/20 12:01:31;;;;;;;12.50;6.70;;;;;;;3.39;56.24;97198.09;105537;1301;22461;-81
2022/12/20 12:04:09;;;;;;;13.90;7.00;;;;;;;3.39;56.57;97199.98;105414;1303;22497;-81
2022/12/20 12:06:46;;;;;;;13.30;7.80;;;;;;;3.41;56.42;97186.14;105460;1306;22513;-82
2022/12/20 12:09:28;;;;;;;12.30;7.10;;;;;;;3.37;56.31;97183.14;105418;1306;22514;-82
2022/12/20 12:12:03;;;;;;;14.90;7.50;;;;;;;3.34;56.05;97192.20;105458;1303;25325;-82
2022/12/20 12:14:48;;;;;;;11.00;6.10;;;;;;;3.31;56.71;97186.57;105437;1305;22536;-81
2022/12/20 12:17:29;;;;;;;11.70;7.10;;;;;;;3.25;56.92;97184.37;105459;1306;22535;-81
2022/12/20 12:20:19;;;;;;;13.70;7.20;;;;;;;3.16;57.38;97175.55;105483;1294;22510;-82